This is the latest recevied weather packets stored in our database for station/object W4SKW. If no packets are shown the sender has not sent any weather packets the latest 10 day(s).
| Time | Temp. | Humidity | Pressure | Rain* | Wind** | Luminosity | Snow |
|---|---|---|---|---|---|---|---|
| 1778022461 | 22.22° C | 64% | 1013.5 hPa | 0 mm | - | 61 W/m² | - |
| 1778022157 | 22.78° C | 59% | 1013.7 hPa | 0 mm | - | 63 W/m² | - |
| 1778021854 | 22.78° C | 61% | 1013.5 hPa | 0 mm | - | 87 W/m² | - |
| 1778021552 | 23.33° C | 50% | 1013.5 hPa | 0 mm | - | 115 W/m² | - |
| 1778021247 | 22.78° C | 59% | 1013.5 hPa | 0 mm | - | 127 W/m² | - |
| 1778020944 | 22.78° C | 59% | 1013.6 hPa | 0 mm | - | 164 W/m² | - |
| 1778020642 | 22.22° C | 62% | 1013.6 hPa | 0 mm | - | 103 W/m² | - |
| 1778020338 | 21.67° C | 64% | 1013.9 hPa | 0 mm | - | 123 W/m² | - |
| 1778020034 | 22.22° C | 60% | 1013.9 hPa | 0 mm | - | 60 W/m² | - |
| 1778019730 | 22.22° C | 59% | 1013.8 hPa | 0 mm | - | 59 W/m² | - |
| 1778019428 | 22.78° C | 62% | 1013.7 hPa | 0 mm | - | 65 W/m² | - |
| 1778019124 | 22.22° C | 62% | 1013.5 hPa | 0 mm | - | 94 W/m² | - |
| 1778018821 | 22.22° C | 62% | 1013.5 hPa | 0 mm | - | 94 W/m² | - |
| 1778018519 | 22.22° C | 64% | 1013.7 hPa | 0 mm | - | 104 W/m² | - |
| 1778018216 | 22.22° C | 59% | 1013.9 hPa | 0 mm | - | 101 W/m² | - |
| 1778017914 | 22.78° C | 58% | 1013.9 hPa | 0 mm | - | 133 W/m² | - |
| 1778017612 | 22.78° C | 58% | 1014 hPa | 0 mm | - | 107 W/m² | - |
| 1778017309 | 22.78° C | 62% | 1014 hPa | 0 mm | - | 116 W/m² | - |
| 1778017006 | 22.78° C | 58% | 1014.2 hPa | 0 mm | - | 113 W/m² | - |
| 1778016703 | 22.78° C | 53% | 1014.1 hPa | 0 mm | - | 106 W/m² | - |
| 1778016399 | 22.78° C | 63% | 1013.9 hPa | 0 mm | - | 128 W/m² | - |
| 1778016097 | 23.89° C | 45% | 1014 hPa | 0 mm | - | 118 W/m² | - |
| 1778015793 | 23.33° C | 61% | 1013.9 hPa | 0 mm | - | 101 W/m² | - |
| 1778015491 | 23.89° C | 57% | 1013.9 hPa | 0 mm | - | 132 W/m² | - |
| 1778015187 | 24.44° C | 48% | 1013.6 hPa | 0 mm | - | 183 W/m² | - |
* Rain latest hour (hover to see other rain measurements)
** Current wind speed in m/s (hover to see current wind gust speed)